createdAt,value
2022-10-29T00:01:08.507Z,11.90
2022-10-29T00:03:37.741Z,10.50
2022-10-29T00:06:08.412Z,10.60
2022-10-29T00:08:38.363Z,8.75
2022-10-29T00:11:08.370Z,10.40
2022-10-29T00:13:38.683Z,10.98
2022-10-29T00:16:08.406Z,7.15
2022-10-29T00:18:36.739Z,9.10
2022-10-29T00:21:06.721Z,10.07
2022-10-29T00:23:35.257Z,9.20
2022-10-29T00:26:04.563Z,9.40
2022-10-29T00:28:32.800Z,9.75
2022-10-29T00:31:05.567Z,7.63
2022-10-29T00:33:33.793Z,8.07
2022-10-29T00:36:05.172Z,7.70
2022-10-29T00:38:34.369Z,7.18
2022-10-29T00:41:03.101Z,8.35
2022-10-29T00:43:31.422Z,7.93
2022-10-29T00:46:02.421Z,8.30
2022-10-29T00:48:35.988Z,7.50
2022-10-29T00:51:06.680Z,8.63
2022-10-29T00:53:39.449Z,8.65
2022-10-29T00:56:08.497Z,7.57
2022-10-29T00:58:36.940Z,6.80
2022-10-29T01:01:05.318Z,6.43
2022-10-29T01:03:35.328Z,8.00
2022-10-29T01:06:04.902Z,7.90
2022-10-29T01:08:33.021Z,6.40
2022-10-29T01:11:11.972Z,6.55
2022-10-29T01:13:55.414Z,6.30
2022-10-29T01:16:32.345Z,7.35
2022-10-29T01:19:13.893Z,6.85
2022-10-29T01:21:45.367Z,7.10
2022-10-29T01:24:43.108Z,7.82
2022-10-29T01:27:49.465Z,7.80
2022-10-29T01:30:23.048Z,8.57
2022-10-29T01:33:01.176Z,8.45
2022-10-29T01:35:38.153Z,8.45
2022-10-29T01:38:13.305Z,8.20
2022-10-29T01:40:49.677Z,7.90
2022-10-29T01:43:24.479Z,8.40
2022-10-29T01:45:57.101Z,7.28
2022-10-29T01:48:33.362Z,8.10
2022-10-29T01:51:07.360Z,8.02
2022-10-29T01:53:38.081Z,7.90
2022-10-29T01:56:06.615Z,8.25
2022-10-29T01:58:37.994Z,7.90
2022-10-29T02:01:19.044Z,7.47
2022-10-29T02:03:58.662Z,8.18
2022-10-29T02:06:37.754Z,7.75
2022-10-29T02:09:16.106Z,7.25
2022-10-29T02:11:53.133Z,8.15
2022-10-29T02:14:27.177Z,8.10
2022-10-29T02:16:57.106Z,7.28
2022-10-29T02:19:30.985Z,7.15
2022-10-29T02:21:59.252Z,7.95
2022-10-29T02:24:27.428Z,7.85
2022-10-29T02:26:55.564Z,8.15
2022-10-29T02:29:23.685Z,8.13
2022-10-29T02:31:51.798Z,8.80
2022-10-29T02:34:20.065Z,7.50
2022-10-29T02:36:49.573Z,7.70
2022-10-29T02:39:17.701Z,7.43
2022-10-29T02:41:45.837Z,7.85
2022-10-29T02:44:14.057Z,7.50
2022-10-29T02:46:42.154Z,8.75
2022-10-29T02:49:10.242Z,7.72
2022-10-29T02:51:38.386Z,7.85
2022-10-29T02:54:07.982Z,8.90
2022-10-29T02:56:36.146Z,9.90
2022-10-29T02:59:06.472Z,9.15
2022-10-29T03:01:37.482Z,9.07
2022-10-29T03:04:05.913Z,8.50
2022-10-29T03:06:34.064Z,7.75
2022-10-29T03:09:02.192Z,9.00
2022-10-29T03:11:31.736Z,7.97
2022-10-29T03:13:59.899Z,8.45
2022-10-29T03:16:28.078Z,8.10
2022-10-29T03:18:56.258Z,8.93
2022-10-29T03:21:24.334Z,8.63
2022-10-29T03:23:52.424Z,8.02
2022-10-29T03:26:20.505Z,7.78
2022-10-29T03:28:50.242Z,8.57
2022-10-29T03:31:18.484Z,8.13
2022-10-29T03:33:46.662Z,9.40
2022-10-29T03:36:14.821Z,9.38
2022-10-29T03:38:43.047Z,9.15
2022-10-29T03:41:11.371Z,7.32
2022-10-29T03:43:40.202Z,9.48
2022-10-29T03:46:09.861Z,8.38
2022-10-29T03:48:38.040Z,8.40
2022-10-29T03:51:07.823Z,8.52
2022-10-29T03:53:38.075Z,9.38
2022-10-29T03:56:06.820Z,9.07
2022-10-29T03:58:34.916Z,8.93
2022-10-29T04:01:04.746Z,10.07
2022-10-29T04:03:35.748Z,9.13
2022-10-29T04:06:11.308Z,10.25
2022-10-29T04:08:39.663Z,9.23
2022-10-29T04:11:08.648Z,10.02
2022-10-29T04:13:36.807Z,10.73
2022-10-29T04:16:05.233Z,9.55
2022-10-29T04:18:34.784Z,11.18
2022-10-29T04:29:27.882Z,12.55
2022-10-29T04:31:55.999Z,10.35
2022-10-29T04:34:25.460Z,11.77
2022-10-29T04:36:53.713Z,10.77
2022-10-29T04:39:23.378Z,10.20
2022-10-29T04:41:51.735Z,9.77
2022-10-29T04:44:20.168Z,10.98
2022-10-29T04:46:48.371Z,10.40
2022-10-29T04:49:16.607Z,10.82
2022-10-29T04:51:46.226Z,10.90
2022-10-29T04:54:15.653Z,10.38
2022-10-29T04:56:43.994Z,10.90
2022-10-29T04:59:12.223Z,9.40
2022-10-29T05:01:40.403Z,11.30
2022-10-29T05:04:08.703Z,9.68
2022-10-29T05:06:36.909Z,10.95
2022-10-29T05:09:06.649Z,11.13
2022-10-29T05:11:34.883Z,11.75
2022-10-29T05:14:03.200Z,12.13
2022-10-29T05:16:31.317Z,11.85
2022-10-29T05:18:59.489Z,12.88
2022-10-29T05:21:27.698Z,12.70
2022-10-29T05:23:55.845Z,10.10
2022-10-29T05:26:25.478Z,12.43
2022-10-29T05:28:53.675Z,11.07
2022-10-29T05:31:21.781Z,9.30
2022-10-29T05:33:52.441Z,10.07
2022-10-29T05:36:23.861Z,11.30
2022-10-29T05:38:52.024Z,11.45
2022-10-29T05:41:20.218Z,11.82
2022-10-29T05:43:51.256Z,10.00
2022-10-29T05:46:19.635Z,11.15
2022-10-29T05:48:47.936Z,10.82
2022-10-29T05:51:16.070Z,11.25
2022-10-29T05:53:44.217Z,10.07
2022-10-29T05:56:12.369Z,8.60
2022-10-29T05:58:40.573Z,8.00
2022-10-29T06:01:11.224Z,8.48
2022-10-29T06:03:40.037Z,7.63
2022-10-29T06:06:08.885Z,8.23
2022-10-29T06:08:37.131Z,9.07
2022-10-29T06:11:05.961Z,8.05
2022-10-29T06:13:34.144Z,8.05
2022-10-29T06:16:02.653Z,8.63
2022-10-29T06:18:32.249Z,8.75
2022-10-29T06:21:00.845Z,8.15
2022-10-29T06:23:29.526Z,9.20
2022-10-29T06:26:00.285Z,9.75
2022-10-29T06:28:34.519Z,10.02
2022-10-29T06:31:03.190Z,9.90
2022-10-29T06:33:32.759Z,9.88
2022-10-29T06:36:01.553Z,9.65
2022-10-29T06:38:29.822Z,9.45
2022-10-29T06:40:58.026Z,10.18
2022-10-29T06:43:26.254Z,9.60
2022-10-29T06:45:54.388Z,10.35
2022-10-29T06:48:23.061Z,11.40
2022-10-29T06:50:52.841Z,11.68
2022-10-29T06:53:21.664Z,11.82
2022-10-29T06:55:49.767Z,11.90
2022-10-29T06:58:19.513Z,11.57
2022-10-29T07:00:48.233Z,11.37
2022-10-29T07:03:17.691Z,12.13
2022-10-29T07:05:46.145Z,12.13
2022-10-29T07:08:15.758Z,10.43
2022-10-29T07:10:43.937Z,12.10
2022-10-29T07:13:12.084Z,9.90
2022-10-29T07:15:40.249Z,11.20
2022-10-29T07:18:10.571Z,10.87
2022-10-29T07:20:40.315Z,9.20
2022-10-29T07:23:09.119Z,10.10
2022-10-29T07:25:40.028Z,9.43
2022-10-29T07:28:12.963Z,8.40
2022-10-29T07:30:42.039Z,8.90
2022-10-29T07:33:10.630Z,9.17
2022-10-29T07:35:39.070Z,9.93
2022-10-29T07:38:10.725Z,10.07
2022-10-29T07:40:47.313Z,9.67
2022-10-29T07:43:15.625Z,12.60
2022-10-29T07:45:45.768Z,10.80
2022-10-29T07:48:14.075Z,10.13
2022-10-29T07:50:42.251Z,10.90
2022-10-29T07:53:11.272Z,10.27
2022-10-29T07:55:40.872Z,9.97
2022-10-29T07:58:13.394Z,11.50
2022-10-29T08:00:42.451Z,9.70
2022-10-29T08:03:12.884Z,10.80
2022-10-29T08:05:42.934Z,10.70
2022-10-29T08:08:11.482Z,10.20
2022-10-29T08:10:41.078Z,12.43
2022-10-29T08:13:09.297Z,11.90
2022-10-29T08:15:37.607Z,10.90
2022-10-29T08:18:12.744Z,10.63
2022-10-29T08:20:40.949Z,11.03
2022-10-29T08:23:09.349Z,10.40
2022-10-29T08:25:41.525Z,10.27
2022-10-29T08:28:13.755Z,11.67
2022-10-29T08:30:44.124Z,10.93
2022-10-29T08:33:12.477Z,11.30
2022-10-29T08:35:40.617Z,10.97
2022-10-29T08:38:08.837Z,10.47
2022-10-29T08:40:44.431Z,11.03
2022-10-29T08:43:48.343Z,10.83
2022-10-29T08:46:22.036Z,11.57
2022-10-29T08:48:54.286Z,12.63
2022-10-29T08:51:25.397Z,11.57
2022-10-29T08:54:24.944Z,12.13
2022-10-29T08:56:47.196Z,12.27
2022-10-29T08:59:18.888Z,10.80
2022-10-29T09:01:47.266Z,9.40
2022-10-29T09:04:24.002Z,10.77
2022-10-29T09:07:05.201Z,9.80
2022-10-29T09:09:39.813Z,9.70
2022-10-29T09:12:34.021Z,8.83
2022-10-29T09:15:28.418Z,9.93
2022-10-29T09:18:10.494Z,9.00
2022-10-29T09:20:52.081Z,8.90
2022-10-29T09:23:33.084Z,8.67
2022-10-29T09:26:05.227Z,7.43
2022-10-29T09:28:48.873Z,7.50
2022-10-29T09:31:27.302Z,7.90
2022-10-29T09:34:01.651Z,9.27
2022-10-29T09:36:32.005Z,8.10
2022-10-29T09:39:03.557Z,8.87
2022-10-29T09:41:34.550Z,7.90
2022-10-29T09:44:08.752Z,8.20
2022-10-29T09:46:48.661Z,8.50
2022-10-29T09:49:32.448Z,9.57
2022-10-29T09:52:05.852Z,8.17
2022-10-29T09:54:34.807Z,7.80
2022-10-29T09:57:04.622Z,8.30
2022-10-29T09:59:37.902Z,7.17
2022-10-29T10:02:25.175Z,8.30
2022-10-29T10:04:56.974Z,7.20
2022-10-29T10:07:25.129Z,7.40
2022-10-29T10:09:57.865Z,8.50
2022-10-29T10:12:28.039Z,6.63
2022-10-29T10:15:04.424Z,6.53
2022-10-29T10:17:56.321Z,6.07
2022-10-29T10:20:31.623Z,5.50
2022-10-29T10:23:00.361Z,5.47
2022-10-29T10:25:35.189Z,6.10
2022-10-29T10:28:17.917Z,5.90
2022-10-29T10:30:46.777Z,5.20
2022-10-29T10:33:27.193Z,5.93
2022-10-29T10:35:56.146Z,5.63
2022-10-29T10:38:24.373Z,6.50
2022-10-29T10:40:57.437Z,6.60
2022-10-29T10:43:27.023Z,5.33
2022-10-29T10:45:59.367Z,6.00
2022-10-29T10:48:33.592Z,5.80
2022-10-29T10:51:24.860Z,5.77
2022-10-29T10:53:53.295Z,5.50
2022-10-29T10:56:23.791Z,4.97
2022-10-29T10:58:58.555Z,5.50
2022-10-29T11:01:32.814Z,5.57
2022-10-29T11:04:11.868Z,5.50
2022-10-29T11:06:43.237Z,5.30
2022-10-29T11:09:20.558Z,4.90
2022-10-29T11:11:58.886Z,4.83
2022-10-29T11:14:32.746Z,5.60
2022-10-29T11:17:03.215Z,5.00
2022-10-29T11:19:39.680Z,5.77
2022-10-29T11:22:18.033Z,4.90
2022-10-29T11:24:52.076Z,5.23
2022-10-29T11:27:29.343Z,4.50
2022-10-29T11:30:04.467Z,4.73
2022-10-29T11:32:46.555Z,3.53
2022-10-29T11:35:21.177Z,4.63
2022-10-29T11:37:56.824Z,3.93
2022-10-29T11:40:38.617Z,3.80
2022-10-29T11:43:12.302Z,3.57
2022-10-29T11:45:49.176Z,4.07
2022-10-29T11:48:27.065Z,3.77
2022-10-29T11:51:02.542Z,4.10
2022-10-29T11:53:47.453Z,4.27
2022-10-29T11:56:27.033Z,4.80
2022-10-29T11:59:03.172Z,4.60
2022-10-29T12:01:43.617Z,3.70
2022-10-29T12:04:24.533Z,4.63
2022-10-29T12:07:15.317Z,4.73
2022-10-29T12:10:01.105Z,3.63
2022-10-29T12:12:35.374Z,4.20
2022-10-29T12:15:13.833Z,4.70
2022-10-29T12:17:51.460Z,4.40
2022-10-29T12:20:28.949Z,4.13
2022-10-29T12:23:12.043Z,4.53
2022-10-29T12:25:55.770Z,4.73
2022-10-29T12:28:30.936Z,4.30
2022-10-29T12:31:15.335Z,5.07
2022-10-29T12:33:51.548Z,4.00
2022-10-29T12:36:27.805Z,3.73
2022-10-29T12:38:58.712Z,3.40
2022-10-29T12:41:31.079Z,2.93
2022-10-29T12:44:08.329Z,3.80
2022-10-29T12:46:42.293Z,3.90
2022-10-29T12:49:20.915Z,4.20
2022-10-29T12:51:54.493Z,4.30
2022-10-29T12:54:37.970Z,4.40
2022-10-29T12:57:07.972Z,5.27
2022-10-29T12:59:38.153Z,3.90
2022-10-29T13:02:31.224Z,4.30
2022-10-29T13:05:37.579Z,3.60
2022-10-29T13:08:35.945Z,4.00
2022-10-29T13:11:20.372Z,3.00
2022-10-29T13:13:57.432Z,3.40
2022-10-29T13:16:32.121Z,4.53
2022-10-29T13:19:25.385Z,3.37
2022-10-29T13:22:05.293Z,3.10
2022-10-29T13:24:34.013Z,2.83
2022-10-29T13:27:35.313Z,2.80
2022-10-29T13:30:22.648Z,3.47
2022-10-29T13:32:51.088Z,2.60
2022-10-29T13:35:41.753Z,4.03
2022-10-29T13:38:17.283Z,3.00
2022-10-29T13:41:11.949Z,2.70
2022-10-29T13:43:44.075Z,2.63
2022-10-29T13:46:47.656Z,2.57
2022-10-29T13:49:23.262Z,2.87
2022-10-29T13:51:56.383Z,5.90
2022-10-29T13:54:31.241Z,4.53
2022-10-29T13:57:01.258Z,3.80
2022-10-29T13:59:42.302Z,3.10
2022-10-29T14:02:22.879Z,2.83
2022-10-29T14:04:56.042Z,3.13
2022-10-29T14:07:31.778Z,2.80
2022-10-29T14:10:07.917Z,3.03
2022-10-29T14:12:39.479Z,3.37
2022-10-29T14:15:12.065Z,3.13
2022-10-29T14:17:40.509Z,3.30
2022-10-29T14:20:25.417Z,3.53
2022-10-29T14:22:53.887Z,3.43
2022-10-29T14:25:33.414Z,4.20
2022-10-29T14:28:26.016Z,4.20
2022-10-29T14:31:04.382Z,3.83
2022-10-29T14:33:34.816Z,4.40
2022-10-29T14:36:12.795Z,3.40
2022-10-29T14:38:44.479Z,5.20
2022-10-29T14:41:13.401Z,4.00
2022-10-29T14:43:42.135Z,3.73
2022-10-29T14:46:24.842Z,4.10
2022-10-29T14:49:00.425Z,3.10
2022-10-29T14:51:29.139Z,4.33
2022-10-29T14:54:03.201Z,4.00
2022-10-29T14:56:38.527Z,4.03
2022-10-29T14:59:15.408Z,4.83
2022-10-29T15:01:56.804Z,4.03
2022-10-29T15:04:32.062Z,4.70
2022-10-29T15:07:16.533Z,4.60
2022-10-29T15:09:47.249Z,4.60
2022-10-29T15:12:21.875Z,5.00
2022-10-29T15:14:51.588Z,5.23
2022-10-29T15:17:24.125Z,4.97
2022-10-29T15:19:55.600Z,5.30
2022-10-29T15:22:31.988Z,6.43
2022-10-29T15:25:02.026Z,5.70
2022-10-29T15:27:30.615Z,7.30
2022-10-29T15:29:59.200Z,8.43
2022-10-29T15:32:31.467Z,6.20
2022-10-29T15:35:00.953Z,6.07
2022-10-29T15:37:43.940Z,5.70
2022-10-29T15:40:15.174Z,5.90
2022-10-29T15:42:45.425Z,4.87
2022-10-29T15:45:22.681Z,7.43
2022-10-29T15:47:56.886Z,6.93
2022-10-29T15:50:28.132Z,10.50
2022-10-29T15:52:59.076Z,10.40
2022-10-29T15:55:29.872Z,8.33
2022-10-29T15:58:03.109Z,9.07
2022-10-29T16:00:32.375Z,8.37
2022-10-29T16:03:14.404Z,8.37
2022-10-29T16:05:43.914Z,7.80
2022-10-29T16:08:22.325Z,7.70
2022-10-29T16:10:50.704Z,9.53
2022-10-29T16:13:19.754Z,10.13
2022-10-29T16:15:47.968Z,11.03
2022-10-29T16:18:17.512Z,11.00
2022-10-29T16:20:46.246Z,9.97
2022-10-29T16:23:14.932Z,10.57
2022-10-29T16:25:43.358Z,8.30
2022-10-29T16:28:11.876Z,9.80
2022-10-29T16:33:14.613Z,9.30
2022-10-29T16:35:44.122Z,8.70
2022-10-29T16:38:12.582Z,9.60
2022-10-29T16:40:42.738Z,10.73
2022-10-29T16:43:11.147Z,11.73
2022-10-29T16:45:39.466Z,10.50
2022-10-29T16:48:08.045Z,11.67
2022-10-29T16:50:36.267Z,12.27
2022-10-29T16:53:08.301Z,12.17
2022-10-29T16:55:38.332Z,12.30
2022-10-29T16:58:07.640Z,15.03
2022-10-29T17:00:36.789Z,16.47
2022-10-29T17:03:09.966Z,16.03
2022-10-29T17:05:41.551Z,15.37
2022-10-29T17:08:12.182Z,17.80
2022-10-29T17:10:40.667Z,18.60
2022-10-29T17:13:11.234Z,15.37
2022-10-29T17:15:41.318Z,17.70
2022-10-29T17:18:09.492Z,17.60
2022-10-29T17:20:37.622Z,17.70
2022-10-29T17:23:05.830Z,19.27
2022-10-29T17:25:35.400Z,19.63
2022-10-29T17:28:03.785Z,21.67
2022-10-29T17:30:31.941Z,20.33
2022-10-29T17:33:00.565Z,19.07
2022-10-29T17:35:29.105Z,19.90
2022-10-29T17:37:57.247Z,18.30
2022-10-29T17:40:25.407Z,18.87
2022-10-29T17:42:55.379Z,20.97
2022-10-29T17:45:24.049Z,20.27
2022-10-29T17:47:56.328Z,16.00
2022-10-29T17:50:25.592Z,13.85
2022-10-29T17:52:54.185Z,13.93
2022-10-29T17:55:22.475Z,11.90
2022-10-29T17:57:50.635Z,14.63
2022-10-29T18:00:20.541Z,12.48
2022-10-29T18:02:50.794Z,13.23
2022-10-29T18:05:19.540Z,13.85
2022-10-29T18:07:47.721Z,13.98
2022-10-29T18:10:16.811Z,14.65
2022-10-29T18:12:45.145Z,16.30
2022-10-29T18:15:13.367Z,15.25
2022-10-29T18:17:43.040Z,16.90
2022-10-29T18:20:11.938Z,18.60
2022-10-29T18:22:40.087Z,27.70
2022-10-29T18:25:08.919Z,29.48
2022-10-29T18:27:37.093Z,23.27
2022-10-29T18:30:05.852Z,23.42
2022-10-29T18:32:34.080Z,25.00
2022-10-29T18:35:04.902Z,26.45
2022-10-29T18:37:33.109Z,26.08
2022-10-29T18:40:01.267Z,26.70
2022-10-29T18:42:30.428Z,28.30
2022-10-29T18:44:58.544Z,28.60
2022-10-29T18:47:26.655Z,27.35
2022-10-29T18:49:54.835Z,25.95
2022-10-29T18:52:24.353Z,28.35
2022-10-29T18:54:52.555Z,27.90
2022-10-29T18:57:20.734Z,29.13
2022-10-29T18:59:49.083Z,27.15
2022-10-29T19:02:17.856Z,26.67
2022-10-29T19:04:46.129Z,26.55
2022-10-29T19:07:14.293Z,20.83
2022-10-29T19:09:43.884Z,19.65
2022-10-29T19:12:13.109Z,18.70
2022-10-29T19:14:41.329Z,16.80
2022-10-29T19:17:09.492Z,16.10
2022-10-29T19:19:37.655Z,12.90
2022-10-29T19:22:05.784Z,14.48
2022-10-29T19:24:33.923Z,13.25
2022-10-29T19:27:03.568Z,14.95
2022-10-29T19:29:31.751Z,15.43
2022-10-29T19:31:59.912Z,15.55
2022-10-29T19:34:28.282Z,16.90
2022-10-29T19:36:56.545Z,17.75
2022-10-29T19:39:24.720Z,16.70
2022-10-29T19:41:52.860Z,15.18
2022-10-29T19:44:22.356Z,16.98
2022-10-29T19:46:51.127Z,16.35
2022-10-29T19:49:19.241Z,23.05
2022-10-29T19:51:48.245Z,21.30
2022-10-29T19:54:16.411Z,17.15
2022-10-29T19:56:44.805Z,18.17
2022-10-29T19:59:12.976Z,16.98
2022-10-29T20:01:43.834Z,18.55
2022-10-29T20:04:12.225Z,17.20
2022-10-29T20:06:40.416Z,14.60
2022-10-29T20:09:08.666Z,17.40
2022-10-29T20:11:36.869Z,18.55
2022-10-29T20:14:05.097Z,21.15
2022-10-29T20:16:33.416Z,22.15
2022-10-29T20:19:04.689Z,21.67
2022-10-29T20:21:32.842Z,20.55
2022-10-29T20:24:01.024Z,18.70
2022-10-29T20:26:29.142Z,19.60
2022-10-29T20:28:57.838Z,16.45
2022-10-29T20:31:31.664Z,19.83
2022-10-29T20:34:03.388Z,17.08
2022-10-29T20:36:33.155Z,18.05
2022-10-29T20:39:01.468Z,15.90
2022-10-29T20:41:30.494Z,17.45
2022-10-29T20:44:01.214Z,18.45
2022-10-29T20:46:29.661Z,19.02
2022-10-29T20:48:57.880Z,19.25
2022-10-29T20:51:28.034Z,17.83
2022-10-29T20:53:56.419Z,18.25
2022-10-29T20:56:27.020Z,15.45
2022-10-29T20:58:55.705Z,15.63
2022-10-29T21:01:25.783Z,15.30
2022-10-29T21:03:54.207Z,16.90
2022-10-29T21:06:22.934Z,17.40
2022-10-29T21:08:53.436Z,17.65
2022-10-29T21:11:23.386Z,20.20
2022-10-29T21:13:51.916Z,18.55
2022-10-29T21:16:22.354Z,19.67
2022-10-29T21:18:52.698Z,19.70
2022-10-29T21:21:20.920Z,20.02
2022-10-29T21:23:49.186Z,18.58
2022-10-29T21:26:20.948Z,20.08
2022-10-29T21:28:49.990Z,22.58
2022-10-29T21:31:18.916Z,18.95
2022-10-29T21:33:49.712Z,16.38
2022-10-29T21:36:18.102Z,15.73
2022-10-29T21:38:46.332Z,15.77
2022-10-29T21:41:14.504Z,17.88
2022-10-29T21:43:44.108Z,17.00
2022-10-29T21:46:12.400Z,17.08
2022-10-29T21:48:40.572Z,17.02
2022-10-29T21:51:11.473Z,16.73
2022-10-29T21:53:39.688Z,15.82
2022-10-29T21:56:11.167Z,15.95
2022-10-29T21:58:39.348Z,18.25
2022-10-29T22:01:10.844Z,19.42
2022-10-29T22:03:41.613Z,18.63
2022-10-29T22:06:13.346Z,19.77
2022-10-29T22:08:42.261Z,18.33
2022-10-29T22:11:11.277Z,18.80
2022-10-29T22:13:39.878Z,20.55
2022-10-29T22:16:10.719Z,20.10
2022-10-29T22:18:38.925Z,19.48
2022-10-29T22:21:09.223Z,18.67
2022-10-29T22:23:38.842Z,20.20
2022-10-29T22:26:07.030Z,20.85
2022-10-29T22:28:35.186Z,19.17
2022-10-29T22:31:05.186Z,18.27
2022-10-29T22:33:35.503Z,16.73
2022-10-29T22:36:09.061Z,15.68
2022-10-29T22:38:37.704Z,16.02
2022-10-29T22:41:07.249Z,16.55
2022-10-29T22:43:35.563Z,18.10
2022-10-29T22:46:04.382Z,16.27
2022-10-29T22:48:34.224Z,17.65
2022-10-29T22:51:04.189Z,17.08
2022-10-29T22:53:32.672Z,16.10
2022-10-29T22:56:01.389Z,16.45
2022-10-29T22:58:29.973Z,20.30
2022-10-29T23:01:06.150Z,22.45
2022-10-29T23:03:35.922Z,20.52
2022-10-29T23:06:06.143Z,20.90
2022-10-29T23:08:34.858Z,19.75
2022-10-29T23:11:06.310Z,19.38
2022-10-29T23:13:35.375Z,21.23
2022-10-29T23:16:03.504Z,21.08
2022-10-29T23:18:31.669Z,20.63
2022-10-29T23:21:02.665Z,21.25
2022-10-29T23:23:31.437Z,21.17
2022-10-29T23:26:02.351Z,19.75
2022-10-29T23:28:31.838Z,20.77
2022-10-29T23:31:01.536Z,17.70
2022-10-29T23:33:30.277Z,17.83
2022-10-29T23:36:04.418Z,18.85
2022-10-29T23:38:32.904Z,18.15
2022-10-29T23:41:01.415Z,19.33
2022-10-29T23:43:29.928Z,16.73
2022-10-29T23:45:58.456Z,17.48
2022-10-29T23:48:26.840Z,17.90
2022-10-29T23:50:56.437Z,18.00
2022-10-29T23:53:26.063Z,20.17
2022-10-29T23:55:54.306Z,18.40
2022-10-29T23:58:22.504Z,18.10
